Time;durP1;ratioP1;P1;durP2;ratioP2;P2;SDS_P1;SDS_P2;PMS_P1;PMS_P2;Temp;Humidity;BMP_temperature;BMP_pressure;BME280_temperature;BME280_humidity;BME280_pressure;Samples;Min_cycle;Max_cycle;Signal;HPM_P1;HPM_P2
2021/08/12 00:00:20;;;;;;;2.65;1.98;;;;;;;22.98;55.33;102007.69;5032264;28;20025;-73
2021/08/12 00:02:45;;;;;;;1.67;1.40;;;;;;;22.96;55.53;102000.72;5032053;28;20538;-73
2021/08/12 00:05:11;;;;;;;2.13;1.60;;;;;;;22.96;55.28;101995.44;5032131;28;20124;-74
2021/08/12 00:07:36;;;;;;;2.00;1.80;;;;;;;23.01;55.43;102006.81;5032024;28;20041;-75
2021/08/12 00:10:05;;;;;;;1.95;1.50;;;;;;;22.97;55.58;101992.78;5032209;28;20029;-75
2021/08/12 00:12:30;;;;;;;1.55;1.38;;;;;;;22.98;55.46;101993.66;5015611;28;20408;-75
2021/08/12 00:14:56;;;;;;;2.40;1.65;;;;;;;22.96;55.19;101985.75;5015639;28;20025;-75
2021/08/12 00:17:21;;;;;;;2.38;1.60;;;;;;;22.97;55.19;101991.91;5015533;28;20071;-75
2021/08/12 00:19:47;;;;;;;1.60;1.30;;;;;;;22.97;55.17;101995.44;5015550;28;20098;-75
2021/08/12 00:22:12;;;;;;;1.90;1.50;;;;;;;22.98;55.38;101994.50;4999148;28;20040;-75
2021/08/12 00:24:38;;;;;;;2.58;1.55;;;;;;;22.95;55.24;101989.28;5032284;28;20029;-75
2021/08/12 00:27:03;;;;;;;1.83;1.63;;;;;;;22.99;55.20;101985.72;5032024;28;20069;-75
2021/08/12 00:29:30;;;;;;;1.73;1.38;;;;;;;22.99;55.33;101993.63;5033195;28;20029;-75
2021/08/12 00:31:56;;;;;;;2.13;1.80;;;;;;;22.95;55.14;101989.28;5033134;28;20037;-75
2021/08/12 00:34:21;;;;;;;2.13;1.52;;;;;;;22.97;55.26;101991.91;5032092;28;20029;-74
2021/08/12 00:36:46;;;;;;;2.10;1.50;;;;;;;22.99;55.24;101995.41;5015561;28;20033;-75
2021/08/12 00:39:12;;;;;;;1.98;1.58;;;;;;;23.00;55.65;101994.50;5031921;28;20025;-75
2021/08/12 00:41:40;;;;;;;2.63;2.03;;;;;;;22.98;55.38;101991.88;5031898;28;20076;-74
2021/08/12 00:44:07;;;;;;;1.75;1.65;;;;;;;22.96;55.20;101991.03;5031920;28;20033;-75
2021/08/12 00:46:32;;;;;;;1.73;1.60;;;;;;;22.97;55.21;101987.50;4999392;28;20053;-75
2021/08/12 00:48:58;;;;;;;1.67;1.30;;;;;;;22.97;55.40;101989.28;5031555;28;20117;-75
2021/08/12 00:51:24;;;;;;;1.98;1.50;;;;;;;22.97;55.14;101992.78;5015310;28;20026;-75
2021/08/12 00:53:49;;;;;;;2.38;1.73;;;;;;;22.97;55.31;101992.78;5035368;28;20025;-75
2021/08/12 00:56:16;;;;;;;1.92;1.58;;;;;;;22.94;55.29;101981.38;5036576;28;20099;-75
2021/08/12 00:58:41;;;;;;;2.67;2.05;;;;;;;22.98;55.22;101980.47;5035275;28;20534;-75
2021/08/12 01:01:06;;;;;;;1.60;1.50;;;;;;;22.97;55.34;101986.63;5035348;28;20033;-75
2021/08/12 01:03:32;;;;;;;2.00;1.70;;;;;;;22.94;55.48;101979.59;5002412;28;20144;-75
2021/08/12 01:05:59;;;;;;;1.88;1.48;;;;;;;22.93;55.48;101972.56;5036521;28;20037;-75
2021/08/12 01:08:45;;;;;;;1.60;1.38;;;;;;;22.97;55.50;101979.59;5036249;28;20472;-75
2021/08/12 01:11:22;;;;;;;1.98;1.60;;;;;;;22.93;55.32;101969.94;5035345;28;20018;-75
2021/08/12 01:14:08;;;;;;;3.15;1.50;;;;;;;22.97;55.28;101976.09;5034870;28;20051;-75
2021/08/12 01:16:42;;;;;;;1.60;1.33;;;;;;;22.96;55.26;101983.13;5036326;28;20383;-74
2021/08/12 01:19:23;;;;;;;2.42;1.83;;;;;;;22.96;55.04;101983.13;5035006;28;20475;-75
2021/08/12 01:21:54;;;;;;;2.50;1.70;;;;;;;22.96;55.22;101980.47;5035001;28;20029;-75
2021/08/12 01:24:21;;;;;;;1.67;1.40;;;;;;;22.96;55.23;101985.75;5036054;28;20029;-75
2021/08/12 01:26:51;;;;;;;2.00;1.45;;;;;;;22.94;55.14;101974.34;5018422;28;20029;-74
2021/08/12 01:29:30;;;;;;;1.88;1.58;;;;;;;22.93;55.30;101966.44;5034668;28;20025;-75
2021/08/12 01:32:07;;;;;;;2.60;1.33;;;;;;;22.96;55.17;101969.06;5034583;28;20025;-75
2021/08/12 01:35:00;;;;;;;2.50;1.90;;;;;;;22.96;55.29;101966.41;5034624;28;20080;-75
2021/08/12 01:37:33;;;;;;;2.10;1.70;;;;;;;22.95;55.08;101962.03;5034767;28;20056;-75
2021/08/12 01:40:01;;;;;;;1.77;1.50;;;;;;;22.95;55.30;101960.25;5034520;28;20514;-75
2021/08/12 01:42:26;;;;;;;2.30;1.60;;;;;;;22.92;55.38;101957.63;5034546;28;20076;-75
2021/08/12 01:44:55;;;;;;;1.90;1.35;;;;;;;22.95;55.11;101962.91;5034671;28;20025;-75
2021/08/12 01:47:22;;;;;;;2.05;1.83;;;;;;;22.94;55.25;101966.41;5034332;28;20484;-74
2021/08/12 01:49:49;;;;;;;2.03;1.60;;;;;;;22.90;55.21;101946.22;5035735;28;20038;-75
2021/08/12 01:52:16;;;;;;;2.78;1.35;;;;;;;22.93;55.43;101953.22;5017714;28;20063;-75
2021/08/12 01:54:43;;;;;;;1.70;1.52;;;;;;;22.93;55.45;101956.75;5017887;28;20471;-75
2021/08/12 01:57:10;;;;;;;1.63;1.38;;;;;;;22.93;55.19;101948.84;5034522;28;20025;-75
2021/08/12 01:59:37;;;;;;;2.78;1.30;;;;;;;22.90;55.26;101959.41;5035853;28;20027;-74
2021/08/12 02:02:04;;;;;;;1.67;1.20;;;;;;;22.94;55.23;101955.00;5034826;28;20022;-73
2021/08/12 02:04:32;;;;;;;1.73;1.52;;;;;;;22.92;55.28;101962.91;5034476;28;20123;-73
2021/08/12 02:06:58;;;;;;;1.30;1.15;;;;;;;22.93;55.19;101962.03;5038584;28;20033;-73
2021/08/12 02:09:23;;;;;;;2.33;1.60;;;;;;;22.91;55.19;101955.00;5036619;28;20112;-73
2021/08/12 02:11:49;;;;;;;1.85;1.50;;;;;;;22.92;55.28;101948.84;5034391;28;20105;-73
2021/08/12 02:14:14;;;;;;;2.67;1.30;;;;;;;22.94;55.18;101965.53;5017466;28;20082;-73
2021/08/12 02:16:40;;;;;;;1.70;1.30;;;;;;;22.90;55.20;101954.13;5017544;28;20060;-73
2021/08/12 02:19:06;;;;;;;1.50;1.30;;;;;;;22.92;55.30;101956.75;5033767;28;20041;-73
2021/08/12 02:21:36;;;;;;;1.35;1.13;;;;;;;22.93;55.13;101956.75;5033999;28;20128;-73
2021/08/12 02:24:10;;;;;;;1.75;1.55;;;;;;;22.93;55.13;101953.22;5034223;28;20036;-73
2021/08/12 02:27:00;;;;;;;1.50;1.20;;;;;;;22.92;55.13;101960.28;5033643;28;20057;-73
2021/08/12 02:29:28;;;;;;;1.90;1.50;;;;;;;22.93;55.09;101956.75;5028664;28;20484;-73
2021/08/12 02:31:55;;;;;;;3.80;1.42;;;;;;;22.91;55.20;101957.63;5033666;28;20503;-73
2021/08/12 02:34:22;;;;;;;1.80;1.60;;;;;;;22.93;54.90;101969.94;5017244;28;20499;-73
2021/08/12 02:36:48;;;;;;;1.42;1.02;;;;;;;22.91;55.07;101965.56;5017013;28;20033;-73
2021/08/12 02:39:15;;;;;;;1.83;1.40;;;;;;;22.89;55.09;101960.28;5017124;28;20061;-73
2021/08/12 02:41:41;;;;;;;1.90;1.45;;;;;;;22.92;54.98;101951.47;5033240;28;20440;-73
2021/08/12 02:44:08;;;;;;;3.15;1.20;;;;;;;22.88;55.21;101940.06;5017027;28;20130;-73
2021/08/12 02:46:35;;;;;;;2.50;2.10;;;;;;;22.90;55.04;101951.47;5033279;28;20485;-73
2021/08/12 02:49:02;;;;;;;2.08;1.65;;;;;;;22.87;55.11;101932.16;5034321;28;20041;-73
2021/08/12 02:51:32;;;;;;;2.10;1.55;;;;;;;22.90;55.20;101935.66;5033267;28;20025;-73
2021/08/12 02:53:57;;;;;;;2.13;1.40;;;;;;;22.92;55.26;101941.81;5033219;28;20037;-73
2021/08/12 02:56:24;;;;;;;2.10;1.30;;;;;;;22.92;55.03;101940.94;5033184;28;20029;-73
2021/08/12 02:58:50;;;;;;;1.77;1.38;;;;;;;22.87;55.23;101933.03;5034279;28;20033;-73
2021/08/12 03:01:16;;;;;;;1.45;1.20;;;;;;;22.90;55.12;101942.69;5016639;28;20023;-73
2021/08/12 03:03:45;;;;;;;2.78;1.58;;;;;;;22.87;54.89;101937.44;5032929;28;20025;-73
2021/08/12 03:06:20;;;;;;;1.83;1.52;;;;;;;22.91;55.05;101949.72;5032893;28;20476;-73
2021/08/12 03:08:48;;;;;;;1.65;1.33;;;;;;;22.91;55.00;101949.72;5032844;28;20031;-73
2021/08/12 03:11:19;;;;;;;2.35;1.50;;;;;;;22.90;55.08;101951.47;5034203;28;20414;-73
2021/08/12 03:13:45;;;;;;;1.30;1.00;;;;;;;22.91;55.08;101947.09;5032690;28;20451;-74
2021/08/12 03:16:11;;;;;;;3.28;1.75;;;;;;;22.88;55.17;101947.09;5034041;28;20022;-75
2021/08/12 03:18:36;;;;;;;1.45;1.20;;;;;;;22.86;55.03;101944.47;5033867;28;20510;-75
2021/08/12 03:21:13;;;;;;;2.60;1.42;;;;;;;22.87;55.09;101948.84;5032721;28;20591;-75
2021/08/12 03:23:40;;;;;;;1.70;1.40;;;;;;;22.88;55.08;101940.06;5032680;28;20112;-75
2021/08/12 03:26:06;;;;;;;1.63;1.42;;;;;;;22.88;54.97;101940.06;5033075;28;20471;-75
2021/08/12 03:28:32;;;;;;;1.10;0.93;;;;;;;22.86;55.08;101941.81;5033988;28;20030;-74
2021/08/12 03:30:59;;;;;;;2.22;1.85;;;;;;;22.88;55.14;101945.34;5032622;28;20069;-74
2021/08/12 03:33:25;;;;;;;2.00;1.67;;;;;;;22.86;54.92;101941.81;5032490;28;20028;-75
2021/08/12 03:35:51;;;;;;;1.50;1.27;;;;;;;22.86;54.96;101939.19;5033808;28;20072;-75
2021/08/12 03:38:16;;;;;;;1.65;1.40;;;;;;;22.90;55.12;101942.69;5033718;28;20021;-75
2021/08/12 03:40:42;;;;;;;2.00;1.38;;;;;;;22.90;55.04;101943.56;5032369;28;20029;-75
2021/08/12 03:43:07;;;;;;;1.60;1.20;;;;;;;22.86;55.09;101928.63;5016012;28;20025;-73
2021/08/12 03:45:33;;;;;;;2.65;2.45;;;;;;;22.89;55.14;101936.53;5032412;28;20032;-73
2021/08/12 03:47:58;;;;;;;1.60;1.20;;;;;;;22.87;55.00;101929.53;5015873;28;20408;-73
2021/08/12 03:50:23;;;;;;;3.08;1.45;;;;;;;22.87;55.09;101935.66;5032559;28;20033;-73
2021/08/12 03:52:49;;;;;;;2.17;1.60;;;;;;;22.87;55.11;101938.31;5033595;28;20029;-73
2021/08/12 03:55:14;;;;;;;2.05;1.73;;;;;;;22.86;55.01;101933.91;5033447;28;20048;-73
2021/08/12 03:57:44;;;;;;;2.25;2.03;;;;;;;22.89;55.18;101930.38;5033515;28;20065;-73
2021/08/12 04:00:11;;;;;;;2.05;1.70;;;;;;;22.87;55.08;101921.59;5032318;28;20022;-73
2021/08/12 04:02:37;;;;;;;2.85;1.40;;;;;;;22.86;55.08;101928.63;5032170;28;20028;-74
2021/08/12 04:05:02;;;;;;;1.95;1.52;;;;;;;22.84;55.37;101919.88;5015810;28;20045;-73
2021/08/12 04:07:28;;;;;;;2.20;1.50;;;;;;;22.85;55.08;101916.34;5032241;28;20029;-73
2021/08/12 04:09:53;;;;;;;1.48;1.20;;;;;;;22.87;55.07;101913.69;4999211;28;20443;-73
2021/08/12 04:12:18;;;;;;;1.80;1.65;;;;;;;22.86;55.28;101920.72;5032070;28;20037;-73
2021/08/12 04:14:43;;;;;;;1.92;1.35;;;;;;;22.85;55.18;101904.94;4999316;28;20072;-73
2021/08/12 04:17:09;;;;;;;2.40;1.65;;;;;;;22.87;55.09;101921.59;5032155;28;20034;-73
2021/08/12 04:19:34;;;;;;;2.45;1.65;;;;;;;22.87;55.11;101921.59;5031959;28;20095;-73
2021/08/12 04:22:00;;;;;;;1.80;1.60;;;;;;;22.84;54.96;101914.63;5032812;28;20028;-73
2021/08/12 04:24:26;;;;;;;1.92;1.48;;;;;;;22.87;55.04;101925.13;5006501;28;20060;-73
2021/08/12 04:26:52;;;;;;;2.10;1.40;;;;;;;22.82;54.99;101916.38;5032288;28;20041;-73
2021/08/12 04:29:17;;;;;;;1.85;1.52;;;;;;;22.88;55.25;101928.63;5036429;28;20033;-73
2021/08/12 04:31:43;;;;;;;1.60;1.30;;;;;;;22.88;55.04;101928.63;5037060;28;20453;-73
2021/08/12 04:34:08;;;;;;;1.67;1.42;;;;;;;22.85;54.97;101929.53;5036053;28;20041;-73
2021/08/12 04:36:33;;;;;;;1.98;1.50;;;;;;;22.83;55.09;101920.78;5003167;28;20026;-73
2021/08/12 04:38:59;;;;;;;2.25;1.80;;;;;;;22.87;54.90;101932.16;5035726;28;20025;-73
2021/08/12 04:41:25;;;;;;;2.17;1.50;;;;;;;22.87;55.09;101945.34;5035729;28;20025;-73
2021/08/12 04:43:50;;;;;;;2.13;1.80;;;;;;;22.86;55.10;101944.47;5035700;28;20025;-73
2021/08/12 04:46:15;;;;;;;2.00;1.48;;;;;;;22.87;54.94;101942.72;5035917;28;20025;-73
2021/08/12 04:48:41;;;;;;;1.90;1.40;;;;;;;22.87;55.08;101943.59;5018848;28;20033;-73
2021/08/12 04:51:06;;;;;;;1.88;1.55;;;;;;;22.86;55.10;101947.09;5018905;28;20492;-73
2021/08/12 04:53:31;;;;;;;1.92;1.45;;;;;;;22.86;54.84;101947.09;5036702;28;20036;-73
2021/08/12 04:55:57;;;;;;;1.60;1.30;;;;;;;22.80;55.05;101936.59;5018803;28;20026;-73
2021/08/12 04:58:22;;;;;;;2.20;1.50;;;;;;;22.81;55.00;101935.72;5035503;28;20037;-73
2021/08/12 05:00:47;;;;;;;2.45;1.63;;;;;;;22.85;55.00;101941.88;5035370;28;20072;-73
2021/08/12 05:03:13;;;;;;;1.98;1.42;;;;;;;22.84;55.02;101934.84;5035481;28;20078;-73
2021/08/12 05:05:39;;;;;;;2.03;1.63;;;;;;;22.87;55.42;101942.72;5002629;28;20029;-73
2021/08/12 05:08:04;;;;;;;1.52;1.40;;;;;;;22.86;55.02;101931.28;5018477;28;20076;-73
2021/08/12 05:10:30;;;;;;;2.30;1.60;;;;;;;22.85;55.22;101932.16;5035391;28;20112;-73
2021/08/12 05:12:55;;;;;;;2.72;1.67;;;;;;;22.88;55.16;101933.91;5036160;28;20041;-73
2021/08/12 05:15:21;;;;;;;2.85;1.60;;;;;;;22.87;54.83;101943.59;5018613;28;20026;-73
2021/08/12 05:17:47;;;;;;;1.90;1.48;;;;;;;22.87;55.18;101940.06;5018453;28;20033;-73
2021/08/12 05:20:12;;;;;;;2.38;1.88;;;;;;;22.81;55.00;101930.44;5034899;28;20086;-73
2021/08/12 05:22:38;;;;;;;1.83;1.70;;;;;;;22.86;55.04;101930.41;5036140;28;20052;-73
2021/08/12 05:25:05;;;;;;;1.67;1.40;;;;;;;22.88;54.97;101939.19;5034820;28;20029;-73
2021/08/12 05:27:30;;;;;;;2.72;1.42;;;;;;;22.86;54.90;101933.03;5034766;28;20037;-73
2021/08/12 05:29:55;;;;;;;2.17;1.60;;;;;;;22.89;55.14;101938.31;5036358;28;20033;-73
2021/08/12 05:32:21;;;;;;;2.10;1.63;;;;;;;22.88;55.16;101940.06;5034815;28;20033;-73
2021/08/12 05:34:46;;;;;;;2.22;2.00;;;;;;;22.87;55.21;101935.66;5036233;28;20116;-73
2021/08/12 05:37:11;;;;;;;1.75;1.42;;;;;;;22.89;54.95;101941.81;5018093;28;20052;-73
2021/08/12 05:39:37;;;;;;;1.90;1.30;;;;;;;22.90;55.37;101956.75;5018036;28;20041;-73
2021/08/12 05:42:02;;;;;;;2.47;1.60;;;;;;;22.90;55.01;101951.47;5018170;28;20029;-73
2021/08/12 05:44:28;;;;;;;2.05;1.63;;;;;;;22.90;55.06;101959.41;5034665;28;20388;-73
2021/08/12 05:46:53;;;;;;;1.83;1.60;;;;;;;22.91;54.88;101952.38;5034429;28;20133;-73
2021/08/12 05:49:22;;;;;;;2.03;1.80;;;;;;;22.90;54.94;101959.41;5018050;28;20057;-73
2021/08/12 05:51:47;;;;;;;2.88;2.10;;;;;;;22.93;54.98;101959.38;5034408;28;20484;-73
2021/08/12 05:54:13;;;;;;;1.90;1.65;;;;;;;22.93;54.81;101959.38;5034236;28;20040;-73
2021/08/12 05:56:38;;;;;;;2.15;1.80;;;;;;;22.93;54.80;101953.22;5034244;28;20072;-73
2021/08/12 05:59:03;;;;;;;1.83;1.50;;;;;;;22.99;54.88;101954.06;5035479;28;20033;-73
2021/08/12 06:01:29;;;;;;;2.20;1.73;;;;;;;23.02;54.73;101956.69;5034238;28;20034;-73
2021/08/12 06:03:55;;;;;;;1.88;1.50;;;;;;;23.03;54.70;101958.44;5034198;28;20036;-73
2021/08/12 06:06:20;;;;;;;1.90;1.55;;;;;;;23.10;54.48;101964.56;5001355;28;20079;-73
2021/08/12 06:08:46;;;;;;;2.08;1.42;;;;;;;23.12;54.52;101968.94;5035194;28;20025;-73
2021/08/12 06:11:11;;;;;;;1.40;1.10;;;;;;;23.14;54.35;101966.28;5034120;28;20349;-73
2021/08/12 06:13:36;;;;;;;1.83;1.60;;;;;;;23.20;54.27;101958.34;5017328;28;20068;-73
2021/08/12 06:16:02;;;;;;;1.67;1.40;;;;;;;23.23;54.28;101960.97;5034031;28;20033;-73
2021/08/12 06:18:27;;;;;;;1.92;1.40;;;;;;;23.26;54.12;101968.84;5017376;28;20037;-73
2021/08/12 06:20:56;;;;;;;1.52;1.25;;;;;;;23.29;54.15;101968.81;5033891;28;20108;-73
2021/08/12 06:23:21;;;;;;;2.60;1.50;;;;;;;23.26;54.18;101960.91;5033787;28;20039;-73
2021/08/12 06:25:47;;;;;;;1.98;1.55;;;;;;;23.34;54.23;101966.16;5001224;28;20120;-73
2021/08/12 06:28:12;;;;;;;2.55;1.63;;;;;;;23.37;54.26;101963.50;5000736;28;20116;-73
2021/08/12 06:30:38;;;;;;;1.92;1.50;;;;;;;23.39;54.21;101970.50;5033786;28;20037;-73
2021/08/12 06:33:04;;;;;;;2.03;1.30;;;;;;;23.43;54.13;101960.81;5035008;28;20030;-73
2021/08/12 06:35:34;;;;;;;2.00;1.55;;;;;;;23.45;54.18;101959.91;5034736;28;20026;-73
2021/08/12 06:38:00;;;;;;;2.22;1.60;;;;;;;23.47;53.95;101959.91;5035010;28;20117;-73
2021/08/12 06:40:26;;;;;;;2.38;1.63;;;;;;;23.51;53.84;101973.06;5034714;28;20091;-73
2021/08/12 06:42:52;;;;;;;1.48;1.30;;;;;;;23.55;53.92;101960.72;5033357;28;20492;-73
2021/08/12 06:45:19;;;;;;;2.13;1.52;;;;;;;23.58;53.94;101963.34;5017037;28;20033;-73
2021/08/12 06:47:46;;;;;;;2.85;1.50;;;;;;;23.58;53.86;101967.75;5033351;28;20060;-73
2021/08/12 06:50:14;;;;;;;2.70;1.70;;;;;;;23.60;53.73;101958.06;5033235;28;20052;-73
2021/08/12 06:52:39;;;;;;;1.45;1.15;;;;;;;23.60;53.79;101956.31;5033092;28;20022;-73
2021/08/12 06:55:05;;;;;;;1.73;1.63;;;;;;;23.63;53.75;101963.34;5033081;28;20032;-73
2021/08/12 06:57:30;;;;;;;2.25;1.60;;;;;;;23.63;53.63;101968.63;5034375;28;20025;-73
2021/08/12 06:59:58;;;;;;;2.83;1.38;;;;;;;23.66;53.85;101963.28;5016633;28;20025;-73
2021/08/12 07:02:23;;;;;;;1.40;1.30;;;;;;;23.65;53.59;101956.25;5033514;28;20170;-73
2021/08/12 07:04:49;;;;;;;3.05;1.80;;;;;;;23.68;53.65;101966.78;5032963;28;20033;-73
2021/08/12 07:07:14;;;;;;;2.35;1.58;;;;;;;23.69;53.53;101961.50;5032881;28;20108;-73
2021/08/12 07:09:40;;;;;;;1.90;1.40;;;;;;;23.71;53.66;101966.75;5016547;28;20040;-73
2021/08/12 07:12:06;;;;;;;1.45;1.20;;;;;;;23.73;53.56;101959.72;5032602;28;20033;-73
2021/08/12 07:14:31;;;;;;;1.23;1.13;;;;;;;23.78;53.87;101966.69;5034129;28;20033;-73
2021/08/12 07:16:59;;;;;;;1.80;1.40;;;;;;;23.75;53.68;101964.09;5033893;28;20476;-73
2021/08/12 07:19:25;;;;;;;1.50;1.15;;;;;;;23.73;53.75;101955.31;5032800;28;20037;-73
2021/08/12 07:21:53;;;;;;;2.35;1.30;;;;;;;23.74;53.78;101957.06;5016270;28;20048;-73
2021/08/12 07:24:19;;;;;;;1.95;1.40;;;;;;;23.82;53.64;101967.53;5033920;28;20059;-73
2021/08/12 07:26:47;;;;;;;1.90;1.55;;;;;;;23.79;53.68;101962.28;5032683;28;20025;-74
2021/08/12 07:29:13;;;;;;;1.77;1.40;;;;;;;23.80;53.74;101956.97;5016644;28;20025;-74
2021/08/12 07:31:39;;;;;;;1.90;1.55;;;;;;;23.76;53.80;101964.94;5033787;28;20132;-73
2021/08/12 07:34:04;;;;;;;1.80;1.38;;;;;;;23.82;53.70;101971.06;5033923;28;20053;-73
2021/08/12 07:36:30;;;;;;;1.58;1.10;;;;;;;23.84;53.72;101973.69;5016157;28;20387;-73
2021/08/12 07:38:55;;;;;;;1.88;1.35;;;;;;;23.81;53.25;101960.50;5016176;28;20041;-73
2021/08/12 07:41:21;;;;;;;1.85;1.65;;;;;;;23.85;53.59;101971.03;5034040;28;20029;-73
2021/08/12 07:43:46;;;;;;;1.73;1.45;;;;;;;23.84;53.65;101968.41;5032860;28;20029;-74
2021/08/12 07:46:12;;;;;;;2.15;1.60;;;;;;;23.86;53.46;101969.28;5016062;28;20056;-74
2021/08/12 07:48:37;;;;;;;1.98;1.58;;;;;;;23.77;53.79;101966.69;5032918;28;20029;-73
2021/08/12 07:51:03;;;;;;;3.22;2.92;;;;;;;23.77;53.89;101972.84;5016434;28;20034;-74
2021/08/12 07:53:29;;;;;;;1.67;1.38;;;;;;;23.75;53.89;101972.03;5033923;28;20037;-73
2021/08/12 07:55:56;;;;;;;2.33;1.38;;;;;;;23.75;53.83;101964.09;5034068;28;20025;-73
2021/08/12 07:58:22;;;;;;;1.55;1.10;;;;;;;23.71;53.98;101974.69;5032783;28;20083;-73
2021/08/12 08:00:48;;;;;;;1.70;1.42;;;;;;;23.72;53.84;101963.25;5032528;28;20030;-74
2021/08/12 08:03:13;;;;;;;2.00;1.35;;;;;;;23.77;53.87;101970.22;5017332;28;20087;-74
2021/08/12 08:05:38;;;;;;;1.50;1.20;;;;;;;23.75;53.95;101965.84;5019956;28;20468;-73
2021/08/12 08:08:04;;;;;;;2.25;1.58;;;;;;;23.77;53.82;101966.69;5037627;28;20056;-75
2021/08/12 08:10:29;;;;;;;1.98;1.60;;;;;;;23.69;53.85;101969.41;5019856;28;20464;-75
2021/08/12 08:12:55;;;;;;;1.60;1.10;;;;;;;23.74;53.93;101978.19;5036109;28;20060;-75
2021/08/12 08:15:21;;;;;;;1.95;1.70;;;;;;;23.72;53.92;101964.13;5019995;28;20390;-74
2021/08/12 08:17:47;;;;;;;1.90;1.70;;;;;;;23.69;54.22;101972.06;5037557;28;20084;-75
2021/08/12 08:20:14;;;;;;;1.98;1.27;;;;;;;23.73;54.01;101972.91;5037349;28;20029;-75
2021/08/12 08:22:40;;;;;;;1.67;1.27;;;;;;;23.79;53.69;101986.03;5037436;28;20061;-74
2021/08/12 08:25:08;;;;;;;1.60;1.42;;;;;;;23.78;53.81;101979.88;5036071;28;20064;-75
2021/08/12 08:27:34;;;;;;;1.95;1.80;;;;;;;23.78;53.66;101976.38;5019643;28;20057;-74
2021/08/12 08:30:00;;;;;;;1.55;1.25;;;;;;;23.77;53.57;101972.84;5037326;28;20412;-75
2021/08/12 08:32:25;;;;;;;3.60;1.70;;;;;;;23.81;53.89;101987.78;5019646;28;20033;-75
2021/08/12 08:34:52;;;;;;;2.58;1.70;;;;;;;23.78;53.88;101977.25;5036009;28;20464;-75
2021/08/12 08:37:18;;;;;;;1.42;0.98;;;;;;;23.80;53.73;101977.25;5036161;28;20029;-74
2021/08/12 08:39:44;;;;;;;1.67;1.25;;;;;;;23.81;53.44;101984.28;5019419;28;20037;-75
2021/08/12 08:42:12;;;;;;;1.33;1.10;;;;;;;23.80;53.72;101991.31;5036863;28;20033;-75
2021/08/12 08:44:39;;;;;;;2.08;1.50;;;;;;;23.83;53.76;101986.03;5036846;28;20025;-75
2021/08/12 08:47:07;;;;;;;1.52;1.20;;;;;;;23.83;53.69;101987.78;5019314;28;20112;-75
2021/08/12 08:49:37;;;;;;;2.05;1.27;;;;;;;23.81;53.69;101985.16;5037084;28;20034;-75
2021/08/12 08:52:03;;;;;;;2.00;1.73;;;;;;;23.85;53.44;101992.16;5019348;28;20032;-73
2021/08/12 08:54:31;;;;;;;2.00;1.35;;;;;;;23.79;53.71;101978.13;5035438;28;20406;-73
2021/08/12 08:56:56;;;;;;;1.52;1.33;;;;;;;23.79;53.53;101992.22;5036831;28;20059;-73
2021/08/12 08:59:23;;;;;;;1.48;1.27;;;;;;;23.81;53.52;101987.78;5035526;28;20021;-73
2021/08/12 09:01:49;;;;;;;1.85;1.23;;;;;;;23.79;53.58;101988.69;5019100;28;20026;-73
2021/08/12 09:04:14;;;;;;;1.58;1.20;;;;;;;23.81;53.77;101995.72;5018919;28;20026;-73
2021/08/12 09:06:40;;;;;;;2.00;1.33;;;;;;;23.80;53.70;101990.44;5035210;28;20036;-73
2021/08/12 09:09:06;;;;;;;2.17;1.40;;;;;;;23.80;53.61;101991.31;5035285;28;20037;-73
2021/08/12 09:11:31;;;;;;;1.65;1.38;;;;;;;23.77;53.76;101988.69;5035444;28;20033;-73
2021/08/12 09:13:56;;;;;;;2.08;1.30;;;;;;;23.78;53.62;101981.66;5034841;28;20061;-73
2021/08/12 09:16:36;;;;;;;1.40;1.05;;;;;;;23.78;53.59;101979.88;5002442;28;20025;-73
2021/08/12 09:19:11;;;;;;;1.70;1.38;;;;;;;23.79;53.58;102002.78;5019347;28;20053;-73
2021/08/12 09:21:36;;;;;;;1.60;1.15;;;;;;;23.73;53.76;101989.63;5035043;28;20472;-75
2021/08/12 09:24:02;;;;;;;1.40;1.13;;;;;;;23.76;53.50;101996.63;5018575;28;20033;-75
2021/08/12 09:26:28;;;;;;;1.63;1.52;;;;;;;23.77;53.70;102004.53;5036135;28;20155;-75
2021/08/12 09:28:54;;;;;;;1.58;1.13;;;;;;;23.78;53.60;102000.13;5018569;28;20036;-74
2021/08/12 09:31:21;;;;;;;2.08;1.30;;;;;;;23.77;53.48;102004.53;5034819;28;20120;-75
2021/08/12 09:33:53;;;;;;;2.63;1.67;;;;;;;23.74;53.68;101999.31;5018619;28;20033;-75
2021/08/12 09:36:27;;;;;;;1.55;1.23;;;;;;;23.76;53.82;102015.13;5036137;28;20061;-75
2021/08/12 09:39:22;;;;;;;1.83;1.35;;;;;;;23.74;53.76;102012.53;5035876;28;20033;-75
2021/08/12 09:41:52;;;;;;;1.75;1.10;;;;;;;23.74;53.95;102006.38;5034724;28;20076;-75
2021/08/12 09:44:44;;;;;;;1.45;1.20;;;;;;;23.74;53.81;102012.53;5035805;28;20025;-75
2021/08/12 09:47:15;;;;;;;1.65;1.20;;;;;;;23.73;53.87;102015.19;5034493;28;20056;-75
2021/08/12 09:49:54;;;;;;;1.65;1.13;;;;;;;23.73;53.76;102017.81;5036152;28;20083;-75
2021/08/12 09:52:29;;;;;;;1.17;0.90;;;;;;;23.73;53.57;102023.97;5035826;28;20049;-75
2021/08/12 09:55:01;;;;;;;1.45;1.30;;;;;;;23.69;53.62;102011.66;5035649;28;20025;-75
2021/08/12 09:57:41;;;;;;;1.80;1.43;;;;;;;23.70;53.76;102018.72;5035682;28;20421;-75
2021/08/12 10:00:07;;;;;;;1.73;1.40;;;;;;;23.70;53.92;102023.13;5035603;28;20018;-75
2021/08/12 10:02:33;;;;;;;1.75;1.20;;;;;;;23.67;53.79;102009.94;5034084;28;20503;-75
2021/08/12 10:05:07;;;;;;;2.17;1.35;;;;;;;23.66;53.81;102014.34;5017727;28;20033;-75
2021/08/12 10:07:41;;;;;;;1.58;1.25;;;;;;;23.68;53.97;102028.41;5034218;28;20083;-75
2021/08/12 10:10:12;;;;;;;1.63;1.10;;;;;;;23.66;53.86;102019.63;5035462;28;20535;-75
2021/08/12 10:12:43;;;;;;;2.65;1.55;;;;;;;23.65;53.71;102020.50;5033833;28;20045;-75
2021/08/12 10:15:11;;;;;;;1.65;1.13;;;;;;;23.68;53.78;102027.53;5033956;28;20479;-75
2021/08/12 10:17:40;;;;;;;1.80;1.60;;;;;;;23.65;53.80;102023.13;5033952;28;20030;-75
2021/08/12 10:20:07;;;;;;;1.83;1.48;;;;;;;23.64;53.62;102018.75;5035229;28;20025;-75
2021/08/12 10:22:32;;;;;;;2.05;1.58;;;;;;;23.63;53.84;102017.00;5017437;28;20022;-75
2021/08/12 10:24:58;;;;;;;1.42;1.15;;;;;;;23.65;53.76;102009.06;5033553;28;20088;-75
2021/08/12 10:27:24;;;;;;;3.67;1.52;;;;;;;23.65;53.81;102012.56;5033712;28;20045;-75
2021/08/12 10:29:50;;;;;;;1.52;1.20;;;;;;;23.66;54.02;102014.34;5033602;28;20030;-74
2021/08/12 10:32:16;;;;;;;2.20;1.50;;;;;;;23.65;53.86;102020.50;5017327;28;20432;-74
2021/08/12 10:34:41;;;;;;;3.13;1.85;;;;;;;23.67;53.76;102023.13;5017256;28;20392;-75
2021/08/12 10:37:10;;;;;;;1.67;1.30;;;;;;;23.66;53.69;102016.97;5034800;28;20037;-75
2021/08/12 10:39:38;;;;;;;1.08;0.95;;;;;;;23.63;53.77;102022.28;5033631;28;20044;-75
2021/08/12 10:42:06;;;;;;;1.85;1.38;;;;;;;23.66;53.63;102030.19;5034687;28;20030;-75
2021/08/12 10:44:32;;;;;;;2.17;1.35;;;;;;;23.61;53.60;102018.78;5033431;28;20032;-75
2021/08/12 10:46:58;;;;;;;2.03;1.20;;;;;;;23.66;54.04;102031.94;5034800;28;20415;-75
2021/08/12 10:49:34;;;;;;;1.85;1.25;;;;;;;23.63;53.77;102016.16;5033445;28;20033;-75
2021/08/12 10:52:08;;;;;;;3.53;1.58;;;;;;;23.66;53.94;102026.66;5033986;28;20037;-75
2021/08/12 10:54:39;;;;;;;2.00;1.50;;;;;;;23.63;53.76;102029.34;5033368;28;20049;-75
2021/08/12 10:57:22;;;;;;;1.88;1.15;;;;;;;23.61;53.84;102010.88;5033193;28;20040;-75
2021/08/12 10:59:49;;;;;;;2.13;1.73;;;;;;;23.61;53.96;102017.91;5016829;28;20030;-75
2021/08/12 11:02:27;;;;;;;2.85;1.17;;;;;;;23.65;53.73;102015.22;5033218;28;20492;-75
2021/08/12 11:04:54;;;;;;;2.30;1.60;;;;;;;23.63;54.04;102027.56;5032977;28;20086;-75
2021/08/12 11:07:37;;;;;;;1.50;1.17;;;;;;;23.64;53.71;102033.72;5034228;28;20025;-74
2021/08/12 11:10:04;;;;;;;;;;;;;;;23.66;54.00;102031.94;5034753;28;20116;-75
2021/08/12 11:12:57;;;;;;;2.53;1.30;;;;;;;23.65;54.02;102023.13;5032743;28;19963;-74
2021/08/12 11:15:38;;;;;;;;;;;;;;;23.65;53.96;102023.13;5033563;28;20111;-75
2021/08/12 11:18:09;;;;;;;1.67;1.30;;;;;;;23.65;53.82;102020.50;5033908;28;20012;-75
2021/08/12 11:20:37;;;;;;;2.03;1.40;;;;;;;23.64;53.83;102023.16;5033200;28;20029;-75
2021/08/12 11:23:21;;;;;;;1.52;1.38;;;;;;;23.65;53.76;102030.19;5032851;28;20021;-75
2021/08/12 11:25:57;;;;;;;1.92;1.27;;;;;;;23.64;54.02;102024.03;5032620;28;20029;-75
2021/08/12 11:28:40;;;;;;;1.63;1.00;;;;;;;23.63;53.95;102016.16;5035392;28;20052;-75